Time;durP1;ratioP1;P1;durP2;ratioP2;P2;SDS_P1;SDS_P2;PMS_P1;PMS_P2;Temp;Humidity;BMP_temperature;BMP_pressure;BME280_temperature;BME280_humidity;BME280_pressure;Samples;Min_cycle;Max_cycle;Signal;HPM_P1;HPM_P2
2023/05/28 00:01:18;;;;;;;15.00;10.30;;;15.90;49.40;;;;;;5004782;28;114929;-78
2023/05/28 00:03:46;;;;;;;14.63;10.05;;;15.90;49.30;;;;;;5020568;28;114388;-78
2023/05/28 00:06:13;;;;;;;14.80;10.73;;;15.90;49.60;;;;;;4991860;28;114925;-78
2023/05/28 00:08:40;;;;;;;14.98;10.05;;;15.90;49.10;;;;;;4984517;28;115136;-78
2023/05/28 00:11:07;;;;;;;13.40;9.75;;;15.90;49.50;;;;;;4983849;28;114286;-79
2023/05/28 00:13:34;;;;;;;12.70;9.68;;;15.80;49.80;;;;;;5000269;28;114299;-79
2023/05/28 00:16:01;;;;;;;14.45;10.43;;;15.90;49.90;;;;;;4998234;28;116535;-80
2023/05/28 00:18:29;;;;;;;15.43;10.75;;;15.90;49.50;;;;;;4979377;28;115052;-79
2023/05/28 00:20:57;;;;;;;13.32;9.52;;;15.90;49.10;;;;;;4980906;28;114328;-80
2023/05/28 00:23:24;;;;;;;14.50;9.25;;;15.90;49.80;;;;;;4982109;28;114632;-79
2023/05/28 00:25:51;;;;;;;13.90;10.77;;;15.90;49.80;;;;;;4997402;28;114872;-78
2023/05/28 00:28:20;;;;;;;12.65;9.63;;;15.90;49.90;;;;;;4991170;28;114773;-79
2023/05/28 00:30:47;;;;;;;13.82;10.15;;;15.80;49.80;;;;;;4999850;28;117125;-79
2023/05/28 00:33:14;;;;;;;15.00;9.73;;;15.80;50.00;;;;;;4983683;28;114174;-79
2023/05/28 00:35:42;;;;;;;13.95;9.60;;;15.80;49.70;;;;;;4998985;28;115337;-80
2023/05/28 00:38:10;;;;;;;13.40;9.45;;;15.80;49.80;;;;;;4962524;28;114944;-79
2023/05/28 00:40:38;;;;;;;14.05;9.38;;;15.80;49.80;;;;;;4947976;28;114685;-78
2023/05/28 00:43:05;;;;;;;12.98;9.05;;;15.80;50.00;;;;;;4999301;28;114301;-78
2023/05/28 00:45:32;;;;;;;15.60;10.23;;;15.90;49.10;;;;;;4982155;28;117770;-78
2023/05/28 00:47:59;;;;;;;12.65;9.10;;;15.80;48.80;;;;;;4979022;28;117829;-78
2023/05/28 00:50:28;;;;;;;14.32;8.95;;;15.80;49.80;;;;;;4984555;28;116276;-78
2023/05/28 00:52:55;;;;;;;15.45;10.15;;;15.80;50.10;;;;;;4986848;28;114223;-78
2023/05/28 00:55:25;;;;;;;12.52;9.57;;;15.70;49.50;;;;;;5002847;28;116080;-78
2023/05/28 00:57:54;;;;;;;13.60;8.98;;;15.70;49.80;;;;;;4986033;28;115889;-78
2023/05/28 01:00:21;;;;;;;12.57;8.75;;;15.70;50.30;;;;;;4983435;28;116283;-78
2023/05/28 01:02:50;;;;;;;15.38;9.40;;;15.70;49.80;;;;;;4981936;28;114336;-78
2023/05/28 01:05:18;;;;;;;15.30;9.15;;;15.70;50.30;;;;;;4961677;28;115094;-79
2023/05/28 01:07:45;;;;;;;13.35;8.90;;;15.70;49.80;;;;;;4983575;28;114581;-78
2023/05/28 01:10:16;;;;;;;11.77;8.57;;;15.70;49.90;;;;;;4965792;28;114449;-79
2023/05/28 01:12:43;;;;;;;11.85;8.32;;;15.70;50.20;;;;;;4983014;28;114318;-79
2023/05/28 01:15:10;;;;;;;13.07;8.68;;;15.60;50.30;;;;;;4964656;28;114886;-78
2023/05/28 01:17:38;;;;;;;12.63;8.77;;;15.70;49.90;;;;;;4965430;28;115179;-79
2023/05/28 01:20:10;;;;;;;11.77;8.80;;;15.60;50.20;;;;;;4998777;28;114393;-78
2023/05/28 01:22:38;;;;;;;10.70;7.55;;;15.60;50.20;;;;;;4998814;28;114239;-78
2023/05/28 01:25:09;;;;;;;13.18;9.30;;;15.60;50.60;;;;;;4976746;28;118672;-78
2023/05/28 01:27:39;;;;;;;12.95;9.02;;;15.60;50.10;;;;;;4981643;28;114667;-79
2023/05/28 01:30:09;;;;;;;12.02;8.52;;;15.60;50.40;;;;;;4982634;28;114235;-79
2023/05/28 01:32:36;;;;;;;12.57;8.38;;;15.60;50.10;;;;;;4979686;28;114358;-79
2023/05/28 01:35:05;;;;;;;11.98;8.32;;;15.70;50.30;;;;;;4982501;28;114953;-79
2023/05/28 01:37:52;;;;;;;10.85;7.53;;;15.70;50.40;;;;;;4965427;28;117150;-79
2023/05/28 01:40:19;;;;;;;10.95;7.97;;;15.70;50.60;;;;;;4981529;28;114587;-78
2023/05/28 01:42:47;;;;;;;13.93;9.88;;;15.70;50.50;;;;;;4947231;28;114490;-78
2023/05/28 01:45:14;;;;;;;12.80;8.48;;;15.70;49.70;;;;;;4985460;28;114823;-78
2023/05/28 01:47:42;;;;;;;12.52;8.05;;;15.60;50.00;;;;;;4966212;28;115232;-77
2023/05/28 01:50:10;;;;;;;13.30;8.48;;;15.70;50.40;;;;;;4981454;28;114802;-78
2023/05/28 01:52:38;;;;;;;12.02;8.07;;;15.60;49.50;;;;;;4998831;28;114256;-77
2023/05/28 01:55:05;;;;;;;11.30;7.28;;;15.60;49.90;;;;;;4962306;28;114671;-78
2023/05/28 01:57:33;;;;;;;11.43;7.45;;;15.50;50.40;;;;;;4997586;28;115306;-79
2023/05/28 02:00:00;;;;;;;10.95;7.80;;;15.50;50.80;;;;;;4981771;28;114143;-79
2023/05/28 02:02:34;;;;;;;10.43;7.65;;;15.50;50.20;;;;;;4978776;28;114559;-78
2023/05/28 02:05:01;;;;;;;11.20;7.68;;;15.50;50.00;;;;;;4965424;28;114956;-78
2023/05/28 02:07:29;;;;;;;11.48;7.15;;;15.50;50.60;;;;;;4986346;28;115162;-79
2023/05/28 02:09:56;;;;;;;11.27;7.45;;;15.50;50.50;;;;;;4981829;28;114283;-79
2023/05/28 02:12:24;;;;;;;10.80;7.15;;;15.50;50.60;;;;;;4998391;28;114288;-78
2023/05/28 02:14:51;;;;;;;10.18;7.00;;;15.60;50.40;;;;;;4961737;28;115200;-78
2023/05/28 02:17:20;;;;;;;10.38;7.20;;;15.60;50.60;;;;;;4982117;28;120022;-78
2023/05/28 02:19:47;;;;;;;10.25;7.32;;;15.50;50.30;;;;;;4997734;28;114558;-78
2023/05/28 02:22:14;;;;;;;12.82;7.65;;;15.40;50.70;;;;;;4980999;28;114404;-78
2023/05/28 02:24:42;;;;;;;10.15;6.90;;;15.40;50.70;;;;;;4964453;28;114975;-78
2023/05/28 02:27:09;;;;;;;11.18;7.35;;;15.50;50.80;;;;;;4980839;28;115048;-77
2023/05/28 02:29:36;;;;;;;10.65;7.13;;;15.50;50.60;;;;;;4980150;28;114812;-78
2023/05/28 02:32:05;;;;;;;9.70;6.95;;;15.50;50.90;;;;;;4982405;28;114410;-78
2023/05/28 02:34:33;;;;;;;11.13;7.45;;;15.50;50.60;;;;;;4981084;28;114960;-78
2023/05/28 02:37:03;;;;;;;11.73;6.93;;;15.50;49.90;;;;;;4996793;28;115154;-78
2023/05/28 02:39:31;;;;;;;11.60;7.28;;;15.50;50.40;;;;;;4981424;28;114293;-78
2023/05/28 02:41:59;;;;;;;11.90;7.32;;;15.50;50.40;;;;;;4980825;28;114542;-79
2023/05/28 02:44:26;;;;;;;9.88;6.85;;;15.50;50.80;;;;;;4996760;28;117200;-78
2023/05/28 02:46:54;;;;;;;9.60;6.78;;;15.40;50.70;;;;;;4980323;28;115245;-78
2023/05/28 02:49:21;;;;;;;10.70;7.30;;;15.50;50.90;;;;;;4998084;28;114458;-78
2023/05/28 02:51:48;;;;;;;9.88;7.03;;;15.40;50.30;;;;;;4981460;28;114452;-78
2023/05/28 02:54:37;;;;;;;8.45;6.68;;;15.40;50.10;;;;;;4993829;28;115083;-79
2023/05/28 02:57:07;;;;;;;10.18;7.25;;;15.40;50.70;;;;;;4981137;28;114779;-79
2023/05/28 02:59:34;;;;;;;11.65;7.25;;;15.40;50.40;;;;;;4981789;28;114328;-79
2023/05/28 03:02:02;;;;;;;10.70;7.22;;;15.40;50.50;;;;;;4987826;28;114301;-78
2023/05/28 03:04:29;;;;;;;10.63;6.90;;;15.40;50.40;;;;;;5000009;28;115323;-79
2023/05/28 03:07:00;;;;;;;9.85;6.53;;;15.40;50.60;;;;;;5000370;28;114825;-79
2023/05/28 03:09:28;;;;;;;10.40;6.75;;;15.40;50.60;;;;;;4998245;28;114597;-80
2023/05/28 03:11:56;;;;;;;9.93;6.90;;;15.50;50.20;;;;;;5004619;28;114219;-80
2023/05/28 03:14:23;;;;;;;10.07;6.80;;;15.50;50.40;;;;;;4987228;28;114849;-79
2023/05/28 03:16:51;;;;;;;11.13;6.90;;;15.50;50.60;;;;;;4986770;28;114717;-79
2023/05/28 03:19:23;;;;;;;10.57;7.13;;;15.50;48.60;;;;;;4987754;28;114434;-80
2023/05/28 03:21:50;;;;;;;11.18;7.40;;;15.50;48.20;;;;;;4987180;28;114338;-79
2023/05/28 03:24:19;;;;;;;9.68;6.72;;;15.60;49.40;;;;;;4968689;28;115076;-79
2023/05/28 03:26:51;;;;;;;10.00;6.25;;;15.70;49.50;;;;;;5003075;28;114907;-78
2023/05/28 03:29:22;;;;;;;9.25;6.53;;;15.90;49.30;;;;;;4987481;28;114334;-79
2023/05/28 03:32:15;;;;;;;9.32;6.55;;;16.20;48.90;;;;;;4983549;28;114773;-78
2023/05/28 03:34:46;;;;;;;11.13;6.80;;;16.30;48.80;;;;;;4987381;28;115712;-79
2023/05/28 03:37:15;;;;;;;10.32;6.47;;;16.50;48.10;;;;;;4986025;28;114610;-79
2023/05/28 03:39:43;;;;;;;10.88;6.75;;;16.70;47.80;;;;;;4987703;28;114485;-79
2023/05/28 03:42:10;;;;;;;10.40;6.65;;;16.90;46.40;;;;;;4990155;28;114169;-79
2023/05/28 03:44:37;;;;;;;9.77;6.70;;;17.00;46.80;;;;;;4986801;28;116863;-79
2023/05/28 03:47:05;;;;;;;8.50;6.35;;;17.20;46.10;;;;;;4986504;28;115121;-79
2023/05/28 03:49:32;;;;;;;10.52;6.85;;;17.30;46.20;;;;;;4987124;28;114554;-79
2023/05/28 03:51:59;;;;;;;8.77;6.43;;;17.40;46.00;;;;;;4986779;28;114554;-79
2023/05/28 03:54:34;;;;;;;10.23;6.00;;;17.50;45.70;;;;;;4986640;28;114888;-79
2023/05/28 03:57:05;;;;;;;8.98;6.20;;;17.60;45.40;;;;;;4986521;28;115025;-79
2023/05/28 03:59:34;;;;;;;9.05;5.88;;;17.60;45.20;;;;;;4991482;28;114491;-79
2023/05/28 04:02:03;;;;;;;8.75;5.70;;;17.70;45.40;;;;;;5007342;28;114478;-79
2023/05/28 04:04:31;;;;;;;8.88;6.47;;;17.80;44.50;;;;;;5007443;28;114888;-80
2023/05/28 04:06:58;;;;;;;10.18;6.43;;;17.80;44.10;;;;;;4979546;28;118199;-79
2023/05/28 04:09:27;;;;;;;7.90;5.88;;;17.80;43.70;;;;;;4985543;28;114186;-78
2023/05/28 04:11:55;;;;;;;10.57;6.47;;;17.80;44.10;;;;;;4991030;28;114583;-79
2023/05/28 04:14:22;;;;;;;8.80;6.00;;;17.80;43.10;;;;;;4986414;28;117094;-79
2023/05/28 04:16:50;;;;;;;9.85;6.47;;;17.70;43.20;;;;;;4986639;28;114811;-79
2023/05/28 04:19:17;;;;;;;10.32;6.38;;;17.60;43.40;;;;;;4987237;28;114495;-79
2023/05/28 04:21:45;;;;;;;10.63;6.20;;;17.40;42.80;;;;;;4983466;28;114291;-80
2023/05/28 04:24:12;;;;;;;9.30;6.40;;;17.30;42.90;;;;;;4998945;28;114973;-80
2023/05/28 04:26:39;;;;;;;8.48;6.05;;;17.10;43.30;;;;;;4984361;28;114798;-80
2023/05/28 04:29:07;;;;;;;10.68;6.18;;;16.90;43.90;;;;;;4984829;28;114358;-80
2023/05/28 04:31:35;;;;;;;9.75;6.43;;;16.90;44.30;;;;;;4983459;28;114489;-79
2023/05/28 04:34:03;;;;;;;10.68;7.43;;;16.90;45.10;;;;;;4983750;28;114927;-80
2023/05/28 04:36:32;;;;;;;10.15;6.65;;;16.90;44.00;;;;;;4970698;28;114664;-80
2023/05/28 04:39:01;;;;;;;10.10;6.47;;;16.80;43.80;;;;;;4986777;28;114208;-79
2023/05/28 04:41:30;;;;;;;10.85;6.85;;;16.60;44.10;;;;;;4994495;28;115978;-81
2023/05/28 04:43:58;;;;;;;10.98;6.43;;;16.40;45.20;;;;;;4982587;28;118276;-80
2023/05/28 04:46:29;;;;;;;10.85;7.45;;;16.50;45.20;;;;;;4999082;28;114693;-80
2023/05/28 04:48:57;;;;;;;10.18;7.15;;;16.50;44.70;;;;;;4964830;28;114230;-78
2023/05/28 04:51:26;;;;;;;12.10;7.82;;;16.50;44.60;;;;;;4999198;28;114371;-79
2023/05/28 04:53:53;;;;;;;12.20;8.07;;;16.50;45.10;;;;;;4978934;28;116721;-78
2023/05/28 04:56:21;;;;;;;10.60;7.60;;;16.50;45.00;;;;;;4979558;28;115941;-78
2023/05/28 04:58:48;;;;;;;13.60;8.25;;;16.50;45.20;;;;;;4965537;28;114255;-78
2023/05/28 05:01:16;;;;;;;11.50;8.25;;;16.60;45.20;;;;;;4982741;28;114430;-79
2023/05/28 05:03:44;;;;;;;14.80;9.02;;;16.60;45.10;;;;;;4980169;28;116116;-78
2023/05/28 05:06:11;;;;;;;11.88;8.80;;;16.70;45.00;;;;;;4960793;28;114685;-78
2023/05/28 05:08:39;;;;;;;14.90;8.82;;;16.60;45.00;;;;;;4989938;28;114565;-79
2023/05/28 05:11:08;;;;;;;11.63;8.23;;;16.60;45.20;;;;;;4979296;28;114536;-78
2023/05/28 05:13:40;;;;;;;18.00;9.10;;;16.60;45.40;;;;;;4977983;28;115129;-78
2023/05/28 05:16:10;;;;;;;13.60;9.00;;;16.70;45.40;;;;;;4976065;28;114599;-78
2023/05/28 05:18:40;;;;;;;15.20;8.57;;;16.70;45.50;;;;;;4977563;28;114227;-78
2023/05/28 05:21:12;;;;;;;14.55;9.13;;;16.80;45.60;;;;;;4975170;28;114133;-80
2023/05/28 05:23:40;;;;;;;14.15;9.45;;;16.90;45.50;;;;;;4959858;28;117626;-79
2023/05/28 05:26:12;;;;;;;12.05;9.35;;;17.00;45.60;;;;;;4981082;28;114598;-79
2023/05/28 05:28:41;;;;;;;16.48;9.70;;;17.00;45.60;;;;;;4977645;28;114421;-79
2023/05/28 05:31:16;;;;;;;13.10;9.40;;;17.10;45.50;;;;;;4980014;28;114650;-79
2023/05/28 05:33:43;;;;;;;12.27;8.85;;;17.10;45.70;;;;;;4975109;28;115177;-79
2023/05/28 05:36:47;;;;;;;11.93;8.52;;;17.20;45.70;;;;;;4927311;28;115529;-79
2023/05/28 05:39:49;;;;;;;11.30;8.40;;;17.30;45.90;;;;;;4960029;28;114552;-79
2023/05/28 05:42:47;;;;;;;15.57;9.10;;;17.50;45.50;;;;;;4968016;28;114913;-79
2023/05/28 05:45:14;;;;;;;14.60;8.48;;;17.70;45.30;;;;;;4974050;28;114936;-79
2023/05/28 05:47:42;;;;;;;13.60;8.88;;;17.80;45.50;;;;;;4994411;28;115757;-79
2023/05/28 05:50:12;;;;;;;13.77;8.70;;;17.90;45.10;;;;;;4972950;28;114362;-79
2023/05/28 05:52:40;;;;;;;11.80;7.78;;;18.00;44.90;;;;;;4979708;28;114555;-79
2023/05/28 05:55:08;;;;;;;11.23;6.82;;;18.20;44.50;;;;;;4940067;28;116291;-79
2023/05/28 05:57:36;;;;;;;11.95;7.53;;;18.20;44.10;;;;;;4963425;28;115326;-78
2023/05/28 06:00:06;;;;;;;10.48;6.80;;;18.30;44.00;;;;;;4986719;28;114580;-79
2023/05/28 06:02:39;;;;;;;10.75;6.78;;;18.40;43.60;;;;;;4973883;28;116455;-78
2023/05/28 06:05:29;;;;;;;11.02;6.95;;;18.50;43.70;;;;;;4976205;28;114853;-79
2023/05/28 06:08:15;;;;;;;10.32;6.93;;;18.60;43.60;;;;;;4980674;28;114884;-79
2023/05/28 06:10:54;;;;;;;10.05;6.32;;;18.60;43.70;;;;;;4974714;28;114321;-79
2023/05/28 06:13:22;;;;;;;10.65;6.82;;;18.80;43.60;;;;;;4991423;28;114882;-79
2023/05/28 06:15:49;;;;;;;12.20;6.85;;;18.80;43.20;;;;;;4975464;28;118400;-78
2023/05/28 06:18:17;;;;;;;10.68;7.68;;;18.90;43.20;;;;;;4981452;28;114935;-78
2023/05/28 06:20:45;;;;;;;11.32;6.90;;;19.00;43.20;;;;;;4981480;28;114376;-78
2023/05/28 06:23:12;;;;;;;12.50;7.22;;;19.00;43.10;;;;;;4998276;28;114516;-78
2023/05/28 06:25:40;;;;;;;10.80;6.65;;;19.10;43.10;;;;;;4979739;28;116663;-78
2023/05/28 06:28:07;;;;;;;15.23;7.57;;;19.30;42.80;;;;;;4980164;28;115208;-78
2023/05/28 06:30:34;;;;;;;13.15;7.40;;;19.30;42.80;;;;;;4996309;28;114406;-78
2023/05/28 06:33:02;;;;;;;13.52;7.30;;;19.30;42.50;;;;;;4982293;28;114241;-77
2023/05/28 06:35:30;;;;;;;10.05;6.95;;;19.30;42.40;;;;;;4947147;28;115238;-79
2023/05/28 06:37:57;;;;;;;13.20;7.60;;;19.40;42.50;;;;;;4980184;28;114806;-79
2023/05/28 06:40:25;;;;;;;11.23;7.13;;;19.50;42.50;;;;;;4988086;28;114236;-78
2023/05/28 06:42:55;;;;;;;12.30;7.07;;;19.60;42.30;;;;;;4986769;28;114308;-79
2023/05/28 06:45:34;;;;;;;13.77;7.60;;;19.70;42.00;;;;;;5015711;28;115361;-79
2023/05/28 06:48:03;;;;;;;11.93;7.07;;;19.70;42.00;;;;;;4956346;28;114613;-79
2023/05/28 06:50:31;;;;;;;10.57;6.53;;;19.60;42.10;;;;;;4980276;28;114665;-79
2023/05/28 06:53:00;;;;;;;12.70;6.57;;;19.70;42.60;;;;;;4996728;28;114110;-78
2023/05/28 06:55:27;;;;;;;9.25;6.93;;;19.80;42.20;;;;;;4977180;28;114842;-78
2023/05/28 06:58:14;;;;;;;11.52;6.78;;;19.80;42.10;;;;;;4993432;28;117142;-79
2023/05/28 07:01:03;;;;;;;10.60;6.82;;;19.80;42.00;;;;;;4988712;28;114198;-78
2023/05/28 07:03:46;;;;;;;10.40;6.93;;;19.80;42.20;;;;;;4981860;28;114306;-78
2023/05/28 07:06:21;;;;;;;12.93;6.55;;;19.80;41.60;;;;;;5000730;28;115294;-80
2023/05/28 07:08:48;;;;;;;10.60;7.20;;;19.80;41.60;;;;;;4985643;28;116077;-79
2023/05/28 07:11:16;;;;;;;14.13;6.78;;;19.70;41.70;;;;;;4978523;28;114681;-78
2023/05/28 07:13:46;;;;;;;9.63;6.38;;;19.70;41.50;;;;;;4980002;28;114350;-79
2023/05/28 07:16:16;;;;;;;10.48;6.10;;;19.70;41.50;;;;;;4975530;28;115509;-79
2023/05/28 07:18:44;;;;;;;12.43;6.15;;;19.60;41.80;;;;;;4979630;28;114721;-79
2023/05/28 07:21:15;;;;;;;10.57;6.45;;;19.50;42.10;;;;;;4979775;28;114578;-79
2023/05/28 07:23:45;;;;;;;9.65;6.30;;;19.50;41.90;;;;;;4976976;28;114238;-79
2023/05/28 07:26:15;;;;;;;13.60;6.10;;;19.50;41.90;;;;;;4977339;28;117912;-79
2023/05/28 07:28:44;;;;;;;10.57;6.55;;;19.40;41.90;;;;;;4962268;28;116540;-78
2023/05/28 07:31:11;;;;;;;9.30;6.18;;;19.30;42.00;;;;;;4977627;28;116012;-79
2023/05/28 07:33:39;;;;;;;10.27;5.43;;;19.30;41.90;;;;;;4981835;28;114392;-78
2023/05/28 07:36:15;;;;;;;9.40;5.47;;;19.30;42.00;;;;;;4977581;28;114923;-79
2023/05/28 07:38:43;;;;;;;8.35;5.38;;;19.30;41.80;;;;;;4979586;28;115296;-79
2023/05/28 07:41:13;;;;;;;9.48;6.03;;;19.40;41.90;;;;;;4980568;28;115474;-79
2023/05/28 07:44:06;;;;;;;10.18;5.72;;;19.40;41.90;;;;;;4985173;28;114378;-78
2023/05/28 07:46:34;;;;;;;10.50;5.53;;;19.40;41.80;;;;;;4987851;28;115183;-77
2023/05/28 07:49:08;;;;;;;9.40;5.30;;;19.30;41.00;;;;;;4983958;28;116769;-80
2023/05/28 07:51:46;;;;;;;8.90;5.15;;;19.30;41.40;;;;;;4987008;28;114569;-78
2023/05/28 07:54:20;;;;;;;10.70;4.68;;;19.30;41.60;;;;;;4981002;28;114337;-79
2023/05/28 07:56:48;;;;;;;9.82;5.35;;;19.40;41.90;;;;;;4982655;28;114944;-77
2023/05/28 07:59:23;;;;;;;7.78;5.10;;;19.50;41.40;;;;;;4968164;28;116676;-80
2023/05/28 08:01:54;;;;;;;8.13;5.38;;;19.50;41.20;;;;;;4984261;28;114619;-80
2023/05/28 08:04:22;;;;;;;8.68;4.93;;;19.40;40.90;;;;;;4983953;28;114573;-78
2023/05/28 08:06:52;;;;;;;8.95;4.82;;;19.30;40.90;;;;;;4974669;28;116383;-80
2023/05/28 08:09:20;;;;;;;10.07;4.90;;;19.30;40.90;;;;;;4983822;28;115972;-79
2023/05/28 08:11:51;;;;;;;10.98;4.95;;;19.30;40.80;;;;;;4983236;28;114261;-80
2023/05/28 08:14:20;;;;;;;9.15;4.65;;;19.40;40.30;;;;;;4983916;28;114407;-82
2023/05/28 08:16:54;;;;;;;7.78;4.78;;;19.30;40.80;;;;;;4996804;28;114924;-79
2023/05/28 08:19:47;;;;;;;8.80;4.82;;;19.30;40.70;;;;;;4979077;28;114642;-78
2023/05/28 08:23:06;;;;;;;8.73;4.30;;;19.20;40.80;;;;;;4970949;28;114438;-79
2023/05/28 08:25:34;;;;;;;7.43;4.20;;;19.00;41.30;;;;;;4991941;28;114895;-79
2023/05/28 08:28:10;;;;;;;8.88;5.15;;;18.90;41.50;;;;;;4991111;28;114851;-79
2023/05/28 08:30:58;;;;;;;7.55;4.68;;;18.90;41.40;;;;;;4987892;28;115274;-80
2023/05/28 08:33:50;;;;;;;7.88;4.60;;;19.00;41.80;;;;;;4968962;28;119332;-79
2023/05/28 08:36:20;;;;;;;8.65;4.63;;;19.00;41.80;;;;;;4982566;28;114241;-78
2023/05/28 08:43:33;;;;;;;9.77;4.55;;;19.20;41.30;;;;;;4976494;28;115341;-79
2023/05/28 08:46:00;;;;;;;6.43;4.32;;;19.20;41.30;;;;;;4963341;28;114646;-78
2023/05/28 08:48:36;;;;;;;8.00;4.32;;;19.30;41.30;;;;;;4965674;28;114396;-80
2023/05/28 08:51:04;;;;;;;8.30;4.63;;;19.20;41.10;;;;;;4964546;28;114944;-79
2023/05/28 08:53:44;;;;;;;9.63;4.25;;;19.30;41.10;;;;;;4964132;28;114790;-80
2023/05/28 08:56:11;;;;;;;12.25;4.72;;;19.20;41.40;;;;;;4962954;28;114458;-79
2023/05/28 08:58:39;;;;;;;10.60;4.80;;;19.00;41.60;;;;;;4979451;28;114466;-79
2023/05/28 09:01:10;;;;;;;9.57;4.38;;;19.00;41.80;;;;;;5003379;28;114902;-78
2023/05/28 09:04:00;;;;;;;10.20;4.70;;;19.10;41.60;;;;;;4981833;28;114725;-78
2023/05/28 09:06:37;;;;;;;12.60;4.68;;;19.20;41.10;;;;;;4977285;28;114607;-78
2023/05/28 09:09:07;;;;;;;7.28;3.97;;;19.30;42.00;;;;;;4963991;28;116371;-79
2023/05/28 09:11:42;;;;;;;7.82;3.85;;;19.30;41.60;;;;;;4995623;28;114953;-78
2023/05/28 09:14:10;;;;;;;9.27;4.25;;;19.40;41.10;;;;;;4980619;28;114627;-79
2023/05/28 09:16:41;;;;;;;8.73;4.38;;;19.30;41.10;;;;;;4965074;28;115061;-78
2023/05/28 09:19:14;;;;;;;7.70;4.53;;;19.30;41.10;;;;;;4982361;28;114642;-78
2023/05/28 09:21:53;;;;;;;6.80;3.97;;;19.30;40.90;;;;;;4997930;28;117261;-78
2023/05/28 09:24:26;;;;;;;7.88;3.88;;;19.30;40.50;;;;;;4998651;28;114804;-77
2023/05/28 09:27:17;;;;;;;8.93;4.35;;;19.30;40.10;;;;;;5003426;28;114131;-78
2023/05/28 09:29:44;;;;;;;8.38;3.97;;;19.20;40.50;;;;;;5002851;28;114593;-78
2023/05/28 09:32:11;;;;;;;7.10;3.78;;;19.30;39.90;;;;;;4984327;28;115590;-80
2023/05/28 09:34:41;;;;;;;7.35;3.70;;;19.30;40.30;;;;;;5002844;28;115199;-79
2023/05/28 09:37:10;;;;;;;9.20;4.10;;;19.30;40.40;;;;;;5001232;28;114388;-79
2023/05/28 09:39:37;;;;;;;7.60;3.70;;;19.30;40.10;;;;;;4985253;28;114418;-79
2023/05/28 09:42:12;;;;;;;9.00;4.50;;;19.30;40.30;;;;;;5001417;28;114951;-79
2023/05/28 09:44:40;;;;;;;7.45;3.78;;;19.40;40.50;;;;;;5002849;28;117854;-78
2023/05/28 09:47:14;;;;;;;7.28;3.97;;;19.60;39.90;;;;;;5003244;28;114306;-79
2023/05/28 09:49:47;;;;;;;6.80;3.42;;;19.70;39.80;;;;;;5003639;28;114474;-79
2023/05/28 09:52:19;;;;;;;6.35;3.83;;;19.80;39.90;;;;;;5002413;28;114961;-79
2023/05/28 09:54:55;;;;;;;7.53;3.88;;;19.80;39.50;;;;;;4979547;28;115348;-79
2023/05/28 09:57:32;;;;;;;7.20;3.65;;;19.80;39.70;;;;;;4982889;28;114258;-79
2023/05/28 10:00:03;;;;;;;6.75;4.05;;;19.90;39.70;;;;;;4981407;28;114785;-78
2023/05/28 10:02:53;;;;;;;8.85;3.83;;;20.00;39.00;;;;;;4982236;28;115562;-79
2023/05/28 10:05:21;;;;;;;7.15;3.90;;;20.20;38.80;;;;;;4997245;28;115029;-79
2023/05/28 10:07:49;;;;;;;7.13;3.92;;;20.20;38.70;;;;;;4982376;28;117011;-79
2023/05/28 10:10:16;;;;;;;6.03;3.70;;;20.20;38.40;;;;;;4998595;28;114571;-79
2023/05/28 10:12:43;;;;;;;7.35;4.30;;;20.20;38.70;;;;;;4997648;28;114937;-79
2023/05/28 10:15:10;;;;;;;6.35;3.80;;;20.30;38.80;;;;;;4964351;28;115006;-79
2023/05/28 10:17:38;;;;;;;8.27;3.72;;;20.30;38.70;;;;;;4962020;28;114531;-78
2023/05/28 10:20:09;;;;;;;9.70;3.72;;;20.30;38.40;;;;;;4981637;28;114585;-79
2023/05/28 10:22:38;;;;;;;9.25;4.07;;;20.30;38.00;;;;;;4981996;28;114823;-79
2023/05/28 10:25:07;;;;;;;7.72;3.83;;;20.30;38.10;;;;;;4982309;28;114991;-79
2023/05/28 10:27:37;;;;;;;7.32;3.72;;;20.30;38.10;;;;;;4997639;28;114652;-79
2023/05/28 10:30:05;;;;;;;8.95;3.88;;;20.40;38.00;;;;;;4983095;28;114635;-78
2023/05/28 10:32:40;;;;;;;6.95;3.67;;;20.60;38.00;;;;;;4997806;28;115630;-78
2023/05/28 10:35:12;;;;;;;6.78;3.67;;;20.80;37.40;;;;;;4980613;28;114811;-79
2023/05/28 10:37:39;;;;;;;6.32;3.40;;;20.90;37.50;;;;;;4988037;28;114643;-78
2023/05/28 10:40:09;;;;;;;6.88;3.50;;;20.80;37.70;;;;;;4985369;28;115842;-79
2023/05/28 10:42:43;;;;;;;10.07;3.70;;;20.70;37.80;;;;;;5000398;28;114877;-79
2023/05/28 10:45:11;;;;;;;10.20;3.90;;;20.70;38.00;;;;;;5001672;28;114637;-79
2023/05/28 10:47:50;;;;;;;6.53;3.50;;;20.80;37.80;;;;;;5002229;28;114435;-80
2023/05/28 10:50:19;;;;;;;7.68;3.45;;;20.90;37.40;;;;;;4981525;28;114291;-79
2023/05/28 10:53:07;;;;;;;6.85;3.63;;;21.00;37.20;;;;;;4980421;28;115483;-80
2023/05/28 10:55:54;;;;;;;8.32;3.38;;;20.90;37.60;;;;;;4981393;28;114198;-79
2023/05/28 10:58:42;;;;;;;6.47;3.28;;;20.90;37.40;;;;;;4982247;28;114186;-79
2023/05/28 11:01:10;;;;;;;7.72;3.35;;;21.00;37.30;;;;;;4982786;28;114196;-78
2023/05/28 11:03:43;;;;;;;6.68;3.70;;;21.10;37.00;;;;;;4991809;28;114859;-79
2023/05/28 11:06:11;;;;;;;7.47;3.83;;;21.10;36.30;;;;;;5000768;28;116461;-79
2023/05/28 11:08:43;;;;;;;7.05;3.30;;;21.00;36.30;;;;;;4982711;28;115533;-79
2023/05/28 11:11:12;;;;;;;7.57;3.53;;;20.90;36.30;;;;;;4997657;28;114451;-79
2023/05/28 11:13:47;;;;;;;6.60;3.33;;;20.80;36.20;;;;;;4980428;28;117827;-80
2023/05/28 11:16:17;;;;;;;7.60;3.53;;;20.80;36.60;;;;;;4981394;28;114774;-78
2023/05/28 11:19:12;;;;;;;7.28;3.58;;;20.70;36.80;;;;;;4980830;28;114287;-78
2023/05/28 11:21:57;;;;;;;7.77;3.40;;;20.60;37.30;;;;;;4978045;28;116202;-79
2023/05/28 11:24:26;;;;;;;9.52;3.75;;;20.50;37.50;;;;;;4980160;28;114968;-79
2023/05/28 11:26:56;;;;;;;7.22;3.58;;;20.40;37.30;;;;;;4993900;28;114817;-79
2023/05/28 11:29:24;;;;;;;8.20;3.45;;;20.40;37.60;;;;;;4985611;28;114539;-79
2023/05/28 11:31:51;;;;;;;7.35;3.30;;;20.30;37.50;;;;;;4984782;28;114591;-79
2023/05/28 11:34:19;;;;;;;8.07;3.65;;;20.30;37.60;;;;;;4984867;28;114984;-79
2023/05/28 11:36:46;;;;;;;5.13;3.35;;;20.40;37.20;;;;;;5000076;28;114780;-80
2023/05/28 11:39:13;;;;;;;7.40;3.85;;;20.30;37.10;;;;;;4983578;28;114243;-79
2023/05/28 11:41:41;;;;;;;9.02;3.90;;;20.30;37.20;;;;;;5013970;28;115924;-79
2023/05/28 11:44:21;;;;;;;8.35;3.58;;;20.30;37.10;;;;;;5004517;28;114869;-79
2023/05/28 11:46:51;;;;;;;8.52;3.83;;;20.30;36.90;;;;;;5004499;28;114593;-79
2023/05/28 11:49:21;;;;;;;6.65;3.25;;;20.30;37.00;;;;;;5005118;28;114198;-79
2023/05/28 11:51:52;;;;;;;7.53;3.42;;;20.30;37.50;;;;;;4994277;28;114537;-80
2023/05/28 11:54:21;;;;;;;8.40;3.60;;;20.40;37.20;;;;;;4984565;28;114903;-78
2023/05/28 11:56:50;;;;;;;7.25;3.65;;;20.30;37.30;;;;;;4985074;28;114667;-79
2023/05/28 11:59:17;;;;;;;9.68;3.83;;;20.30;37.20;;;;;;5000461;28;114563;-79
2023/05/28 12:01:44;;;;;;;6.25;3.03;;;20.40;36.70;;;;;;5003911;28;114459;-79
2023/05/28 12:04:15;;;;;;;7.20;2.90;;;20.40;37.00;;;;;;5003904;28;114855;-79
2023/05/28 12:06:52;;;;;;;7.55;3.40;;;20.40;37.00;;;;;;5002318;28;116618;-80
2023/05/28 12:09:20;;;;;;;7.13;4.03;;;20.30;37.30;;;;;;5003978;28;114500;-79
2023/05/28 12:12:09;;;;;;;5.95;3.30;;;20.40;37.50;;;;;;5003774;28;114210;-78
2023/05/28 12:14:58;;;;;;;6.93;3.60;;;20.60;37.30;;;;;;5003991;28;115255;-78
2023/05/28 12:18:00;;;;;;;6.88;3.15;;;20.60;37.10;;;;;;4991097;28;115226;-78
2023/05/28 12:20:41;;;;;;;9.90;4.28;;;20.50;37.20;;;;;;5003632;28;114462;-79
2023/05/28 12:23:12;;;;;;;7.50;3.42;;;20.50;37.40;;;;;;5005531;28;114640;-78
2023/05/28 12:25:42;;;;;;;10.00;4.32;;;20.40;37.30;;;;;;5004065;28;115473;-78
2023/05/28 12:28:11;;;;;;;6.85;3.78;;;20.30;37.20;;;;;;5002152;28;117077;-79
2023/05/28 12:30:38;;;;;;;7.05;3.55;;;20.30;37.10;;;;;;4998676;28;117128;-79
2023/05/28 12:33:06;;;;;;;5.97;3.38;;;20.30;37.20;;;;;;4985189;28;114682;-79
2023/05/28 12:35:33;;;;;;;8.85;3.88;;;20.40;37.50;;;;;;4983910;28;117020;-79
2023/05/28 12:38:00;;;;;;;7.47;3.40;;;20.40;37.10;;;;;;4984274;28;114742;-78
2023/05/28 12:40:28;;;;;;;7.80;3.53;;;20.60;37.40;;;;;;4984905;28;114351;-78
2023/05/28 12:42:56;;;;;;;6.05;3.42;;;20.50;37.30;;;;;;4982536;28;114660;-79
2023/05/28 12:45:23;;;;;;;7.80;3.72;;;20.50;37.10;;;;;;4984152;28;115078;-78
2023/05/28 12:47:50;;;;;;;8.35;3.50;;;20.50;37.30;;;;;;4984385;28;114777;-79
2023/05/28 12:50:19;;;;;;;7.30;3.65;;;20.50;37.10;;;;;;4984203;28;114527;-79
2023/05/28 12:52:46;;;;;;;7.30;3.63;;;20.40;37.30;;;;;;4984504;28;114344;-80
2023/05/28 12:55:13;;;;;;;8.25;3.90;;;20.50;37.40;;;;;;4983621;28;115082;-77